^^
Station Historical Data
Daily Summary for June 18, 2021 Units:  English    Metric   Both
Daily Weekly Monthly Yearly
  High: Low: Average:
Temperature: 78.5 °F 68.4 °F 73.9 °F
Dew Point: 70.6 °F 58.8 °F 65.4 °F
Humidity: 87% 58% 75%
Wind Speed: 7mph 0mph 3.2mph
Wind Gust: 10mph - -
Wind- - South
Pressure: 29.80 in 29.60 in -
Precipitation: 0.00 in    
 
 
Tabular Data for June 18, 2021
Time Temperature Dew Point Pressure Wind Wind Speed Wind Gust Humidity Rainfall Rate (Hourly) solar
00:00 74.8 °F 63.9 °F 29.80 in NNE 2 mph 2 mph 69% 0.00 in 0 W/m2
00:05 74.4 °F 63.6 °F 29.80 in NNE 2 mph 2 mph 69% 0.00 in 0 W/m2
00:10 74 °F 63.2 °F 29.80 in North 2 mph 2 mph 69% 0.00 in 0 W/m2
00:15 73.8 °F 62.2 °F 29.79 in North 2 mph 2 mph 67% 0.00 in 0 W/m2
00:20 73.8 °F 62.6 °F 29.78 in NNE 2 mph 2 mph 68% 0.00 in 0 W/m2
00:25 73.8 °F 61.7 °F 29.78 in North 2 mph 2 mph 66% 0.00 in 0 W/m2
00:30 73.8 °F 61.3 °F 29.77 in NNE 2 mph 2 mph 65% 0.00 in 0 W/m2
00:35 73.9 °F 60.5 °F 29.77 in NNE 2 mph 3 mph 63% 0.00 in 0 W/m2
00:40 74 °F 60.2 °F 29.77 in NNE 3 mph 3 mph 62% 0.00 in 0 W/m2
00:45 74.2 °F 61.2 °F 29.76 in North 3 mph 3 mph 64% 0.00 in 0 W/m2
00:50 74.3 °F 60.4 °F 29.77 in NNE 2 mph 4 mph 62% 0.00 in 0 W/m2
00:55 74.4 °F 61.4 °F 29.76 in NNE 2 mph 4 mph 64% 0.00 in 0 W/m2
01:00 74.3 °F 60.4 °F 29.77 in NNE 2 mph 2 mph 62% 0.00 in 0 W/m2
01:05 74.3 °F 60.4 °F 29.76 in NNE 2 mph 2 mph 62% 0.00 in 0 W/m2
01:10 74.3 °F 60.9 °F 29.76 in NNE 2 mph 2 mph 63% 0.00 in 0 W/m2
01:15 74.1 °F 60.7 °F 29.76 in NNE 2 mph 2 mph 63% 0.00 in 0 W/m2
01:20 74 °F 60.6 °F 29.76 in NE 2 mph 2 mph 63% 0.00 in 0 W/m2
01:25 73.8 °F 61.3 °F 29.76 in NE 2 mph 2 mph 65% 0.00 in 0 W/m2
01:30 73.7 °F 61.2 °F 29.76 in NNE 2 mph 2 mph 65% 0.00 in 0 W/m2
01:35 73.6 °F 61.5 °F 29.76 in NW 2 mph 2 mph 66% 0.00 in 0 W/m2
01:40 73.5 °F 61 °F 29.76 in NE 2 mph 2 mph 65% 0.00 in 0 W/m2
01:45 73.3 °F 61.3 °F 29.76 in North 2 mph 2 mph 66% 0.00 in 0 W/m2
01:50 73.3 °F 60.4 °F 29.75 in North 2 mph 3 mph 64% 0.00 in 0 W/m2
01:55 73.4 °F 60.9 °F 29.75 in North 2 mph 3 mph 65% 0.00 in 0 W/m2
02:00 73.5 °F 60.6 °F 29.75 in NE 2 mph 2 mph 64% 0.00 in 0 W/m2
02:05 73.5 °F 61.4 °F 29.75 in NW 2 mph 2 mph 66% 0.00 in 0 W/m2
02:10 73.5 °F 61 °F 29.75 in NE 2 mph 2 mph 65% 0.00 in 0 W/m2
02:15 73.6 °F 61.1 °F 29.74 in NNE 2 mph 2 mph 65% 0.00 in 0 W/m2
02:20 73.7 °F 61.6 °F 29.74 in NNW 2 mph 2 mph 66% 0.00 in 0 W/m2
02:25 73.8 °F 60.9 °F 29.73 in NNE 2 mph 2 mph 64% 0.00 in 0 W/m2
02:30 74 °F 60.6 °F 29.72 in NNE 3 mph 3 mph 63% 0.00 in 0 W/m2
02:35 74.3 °F 61.3 °F 29.72 in NE 3 mph 3 mph 64% 0.00 in 0 W/m2
02:40 74.3 °F 61.3 °F 29.71 in NE 3 mph 4 mph 64% 0.00 in 0 W/m2
02:45 74.3 °F 61.8 °F 29.71 in NE 3 mph 4 mph 65% 0.00 in 0 W/m2
02:50 74.2 °F 61.7 °F 29.72 in NE 3 mph 3 mph 65% 0.00 in 0 W/m2
02:55 74.2 °F 60.8 °F 29.72 in NNE 3 mph 4 mph 63% 0.00 in 0 W/m2
03:00 74.3 °F 62.2 °F 29.73 in NE 2 mph 2 mph 66% 0.00 in 0 W/m2
03:05 74.3 °F 61.8 °F 29.74 in NE 2 mph 2 mph 65% 0.00 in 0 W/m2
03:10 74.5 °F 58.8 °F 29.74 in ESE 2 mph 3 mph 58% 0.00 in 0 W/m2
03:15 74.9 °F 59.6 °F 29.74 in South 2 mph 6 mph 59% 0.00 in 0 W/m2
03:20 75 °F 60.6 °F 29.74 in SW 3 mph 3 mph 61% 0.00 in 0 W/m2
03:25 74.9 °F 60.5 °F 29.74 in SW 4 mph 4 mph 61% 0.00 in 0 W/m2
03:30 74.6 °F 61.6 °F 29.73 in NNW 4 mph 4 mph 64% 0.00 in 0 W/m2
03:35 74.2 °F 61.2 °F 29.72 in ENE 3 mph 4 mph 64% 0.00 in 0 W/m2
03:40 74.1 °F 60.7 °F 29.72 in SW 4 mph 4 mph 63% 0.00 in 0 W/m2
03:45 73.9 °F 61.4 °F 29.73 in SSW 5 mph 6 mph 65% 0.00 in 0 W/m2
03:50 73.7 °F 62.1 °F 29.73 in SSW 5 mph 5 mph 67% 0.00 in 0 W/m2
03:55 73.7 °F 62.1 °F 29.74 in SW 5 mph 6 mph 67% 0.00 in 0 W/m2
04:00 73.6 °F 62 °F 29.74 in WSW 4 mph 6 mph 67% 0.00 in 0 W/m2
04:05 73.5 °F 63.1 °F 29.74 in South 5 mph 7 mph 70% 0.00 in 0 W/m2
04:10 73.3 °F 62.5 °F 29.73 in SSW 5 mph 8 mph 69% 0.00 in 0 W/m2
04:15 73.3 °F 62.5 °F 29.73 in SW 5 mph 8 mph 69% 0.00 in 0 W/m2
04:20 73.3 °F 62.9 °F 29.72 in SSW 4 mph 4 mph 70% 0.00 in 0 W/m2
04:25 73.3 °F 63.7 °F 29.72 in West 4 mph 4 mph 72% 0.00 in 0 W/m2
04:30 73.3 °F 63.7 °F 29.72 in SSW 4 mph 4 mph 72% 0.00 in 0 W/m2
04:35 73.1 °F 63.1 °F 29.73 in West 4 mph 4 mph 71% 0.00 in 0 W/m2
04:40 73.1 °F 63.1 °F 29.73 in SW 4 mph 4 mph 71% 0.00 in 0 W/m2
04:45 73.1 °F 63.1 °F 29.73 in SW 4 mph 5 mph 71% 0.00 in 0 W/m2
04:50 73.2 °F 63.6 °F 29.72 in SW 4 mph 4 mph 72% 0.00 in 0 W/m2
04:55 73.3 °F 62.9 °F 29.72 in WSW 4 mph 4 mph 70% 0.00 in 0 W/m2
05:00 73.5 °F 62.7 °F 29.72 in SW 5 mph 5 mph 69% 0.00 in 0 W/m2
05:05 73.7 °F 62.5 °F 29.72 in SSW 5 mph 8 mph 68% 0.00 in 0 W/m2
05:10 73.9 °F 62.2 °F 29.72 in WSW 6 mph 6 mph 67% 0.00 in 0 W/m2
05:15 74 °F 61.9 °F 29.72 in SSW 6 mph 6 mph 66% 0.00 in 0 W/m2
05:20 74.1 °F 62.4 °F 29.72 in SW 6 mph 6 mph 67% 0.00 in 0 W/m2
05:25 74.2 °F 62.1 °F 29.71 in South 6 mph 6 mph 66% 0.00 in 0 W/m2
05:30 74.3 °F 61.8 °F 29.71 in SE 5 mph 5 mph 65% 0.00 in 0 W/m2
05:35 74.4 °F 61.4 °F 29.70 in South 5 mph 5 mph 64% 0.00 in 0 W/m2
05:40 74.4 °F 61.9 °F 29.70 in SSW 4 mph 7 mph 65% 0.00 in 0 W/m2
05:45 74.4 °F 62.3 °F 29.70 in SSE 4 mph 7 mph 66% 0.00 in 0 W/m2
05:50 74.1 °F 62.4 °F 29.70 in ENE 3 mph 4 mph 67% 0.00 in 0 W/m2
05:55 74 °F 62.8 °F 29.70 in SSE 2 mph 4 mph 68% 0.00 in 0 W/m2
06:00 73.9 °F 62.2 °F 29.71 in SW 3 mph 5 mph 67% 0.00 in 0 W/m2
06:05 73.8 °F 63.4 °F 29.71 in SSW 5 mph 7 mph 70% 0.00 in 0 W/m2
06:10 73.5 °F 63.9 °F 29.72 in SW 7 mph 9 mph 72% 0.00 in 0 W/m2
06:15 73.2 °F 64 °F 29.72 in SE 7 mph 9 mph 73% 0.00 in 0 W/m2
06:20 72.8 °F 62.8 °F 29.71 in SSE 6 mph 6 mph 71% 0.00 in 0 W/m2
06:25 72.2 °F 63.4 °F 29.71 in East 4 mph 6 mph 74% 0.00 in 5 W/m2
06:30 71.6 °F 63.6 °F 29.70 in NE 3 mph 5 mph 76% 0.00 in 5 W/m2
06:35 71 °F 63.8 °F 29.70 in WSW 4 mph 5 mph 78% 0.00 in 7 W/m2
06:40 70.5 °F 64 °F 29.70 in North 4 mph 4 mph 80% 0.00 in 11 W/m2
06:45 70.3 °F 63.8 °F 29.70 in SSE 3 mph 4 mph 80% 0.00 in 14 W/m2
06:50 70.4 °F 63.9 °F 29.70 in ESE 3 mph 3 mph 80% 0.00 in 18 W/m2
06:55 70.5 °F 64 °F 29.69 in NNE 3 mph 3 mph 80% 0.00 in 18 W/m2
07:00 70.5 °F 64 °F 29.69 in SSE 3 mph 3 mph 80% 0.00 in 23 W/m2
07:05 70.4 °F 63.9 °F 29.69 in NE 3 mph 3 mph 80% 0.00 in 25 W/m2
07:10 70.5 °F 63.7 °F 29.69 in NE 3 mph 3 mph 79% 0.00 in 26 W/m2
07:15 70.4 °F 63.9 °F 29.70 in East 3 mph 3 mph 80% 0.00 in 30 W/m2
07:20 70.4 °F 63.6 °F 29.71 in SSW 3 mph 5 mph 79% 0.00 in 39 W/m2
07:25 70.5 °F 63.7 °F 29.70 in NE 3 mph 5 mph 79% 0.00 in 49 W/m2
07:30 70.6 °F 63.4 °F 29.71 in NNE 2 mph 2 mph 78% 0.00 in 47 W/m2
07:35 70.6 °F 63.8 °F 29.72 in ENE 2 mph 2 mph 79% 0.00 in 33 W/m2
07:40 70.6 °F 63 °F 29.72 in WNW 2 mph 2 mph 77% 0.00 in 35 W/m2
07:45 70.6 °F 63.4 °F 29.71 in ENE 2 mph 4 mph 78% 0.00 in 40 W/m2
07:50 70.6 °F 63.4 °F 29.71 in South 2 mph 2 mph 78% 0.00 in 37 W/m2
07:55 70.6 °F 63.8 °F 29.71 in SW 2 mph 3 mph 79% 0.00 in 33 W/m2
08:00 70.6 °F 63.4 °F 29.71 in NNW 3 mph 3 mph 78% 0.00 in 33 W/m2
08:05 70.6 °F 63.8 °F 29.71 in East 3 mph 3 mph 79% 0.00 in 32 W/m2
08:10 70.6 °F 64.1 °F 29.71 in NNW 3 mph 3 mph 80% 0.00 in 32 W/m2
08:15 70.7 °F 63.5 °F 29.71 in East 2 mph 3 mph 78% 0.00 in 32 W/m2
08:20 70.7 °F 63.9 °F 29.70 in NNE 3 mph 5 mph 79% 0.00 in 32 W/m2
08:25 70.6 °F 63.8 °F 29.70 in NE 3 mph 5 mph 79% 0.00 in 26 W/m2
08:30 70.4 °F 63.9 °F 29.70 in NE 3 mph 4 mph 80% 0.00 in 25 W/m2
08:35 69.6 °F 63.5 °F 29.69 in NNE 3 mph 4 mph 81% 0.00 in 25 W/m2
08:40 69 °F 62.9 °F 29.69 in East 3 mph 3 mph 81% 0.00 in 19 W/m2
08:45 68.5 °F 62.8 °F 29.70 in ENE 3 mph 3 mph 82% 0.00 in 14 W/m2
08:50 68.5 °F 62.8 °F 29.71 in WSW 2 mph 3 mph 82% 0.00 in 14 W/m2
08:55 68.5 °F 63.1 °F 29.71 in SW 2 mph 3 mph 83% 0.00 in 44 W/m2
09:00 68.4 °F 62.7 °F 29.71 in NNW 3 mph 3 mph 82% 0.00 in 74 W/m2
09:05 68.5 °F 63.1 °F 29.71 in West 4 mph 4 mph 83% 0.00 in 46 W/m2
09:10 68.5 °F 63.5 °F 29.72 in West 3 mph 4 mph 84% 0.00 in 28 W/m2
09:15 68.5 °F 63.8 °F 29.72 in WNW 3 mph 4 mph 85% 0.00 in 76 W/m2
09:20 68.6 °F 63.9 °F 29.71 in SSE 4 mph 4 mph 85% 0.00 in 83 W/m2
09:25 68.6 °F 63.9 °F 29.73 in West 4 mph 10 mph 85% 0.00 in 33 W/m2
09:30 68.8 °F 64.4 °F 29.70 in South 4 mph 4 mph 86% 0.00 in 46 W/m2
09:35 68.9 °F 64.5 °F 29.70 in South 3 mph 4 mph 86% 0.00 in 44 W/m2
09:40 68.9 °F 64.5 °F 29.71 in East 2 mph 2 mph 86% 0.00 in 46 W/m2
09:45 68.9 °F 64.5 °F 29.70 in ENE 2 mph 2 mph 86% 0.00 in 69 W/m2
09:50 69 °F 65 °F 29.70 in South 2 mph 2 mph 87% 0.00 in 69 W/m2
09:55 69 °F 65 °F 29.71 in WSW 2 mph 7 mph 87% 0.00 in 153 W/m2
10:00 69.1 °F 65.1 °F 29.72 in SSW 3 mph 3 mph 87% 0.00 in 181 W/m2
10:05 69.2 °F 64.8 °F 29.72 in SW 3 mph 5 mph 86% 0.00 in 185 W/m2
10:10 69.3 °F 64.9 °F 29.72 in West 3 mph 3 mph 86% 0.00 in 153 W/m2
10:15 69.4 °F 65 °F 29.72 in WSW 3 mph 4 mph 86% 0.00 in 302 W/m2
10:20 69.6 °F 65.2 °F 29.72 in SW 3 mph 3 mph 86% 0.00 in 313 W/m2
10:25 69.7 °F 65 °F 29.72 in SW 3 mph 5 mph 85% 0.00 in 446 W/m2
10:30 69.8 °F 64.7 °F 29.71 in SW 3 mph 3 mph 84% 0.00 in 527 W/m2
10:35 70 °F 64.9 °F 29.71 in SSE 3 mph 3 mph 84% 0.00 in 520 W/m2
10:40 70.1 °F 65 °F 29.71 in SW 3 mph 3 mph 84% 0.00 in 580 W/m2
10:45 70.2 °F 65.1 °F 29.71 in SSW 3 mph 4 mph 84% 0.00 in 612 W/m2
10:50 70.3 °F 64.9 °F 29.70 in SSE 3 mph 3 mph 83% 0.00 in 708 W/m2
10:55 70.6 °F 65.5 °F 29.70 in SSW 3 mph 3 mph 84% 0.00 in 810 W/m2
11:00 70.8 °F 65.7 °F 29.70 in SSW 3 mph 3 mph 84% 0.00 in 728 W/m2
11:05 71 °F 65.6 °F 29.70 in WSW 3 mph 3 mph 83% 0.00 in 563 W/m2
11:10 71 °F 65.6 °F 29.70 in ESE 3 mph 3 mph 83% 0.00 in 605 W/m2
11:15 71 °F 65.6 °F 29.69 in East 3 mph 3 mph 83% 0.00 in 668 W/m2
11:20 70.9 °F 65.1 °F 29.69 in WSW 2 mph 2 mph 82% 0.00 in 650 W/m2
11:25 71 °F 65.2 °F 29.69 in South 2 mph 3 mph 82% 0.00 in 770 W/m2
11:30 71.1 °F 65.3 °F 29.69 in SW 3 mph 5 mph 82% 0.00 in 745 W/m2
11:35 71.1 °F 65 °F 29.69 in SW 3 mph 5 mph 81% 0.00 in 803 W/m2
11:40 71.2 °F 65.4 °F 29.69 in SSE 3 mph 3 mph 82% 0.00 in 835 W/m2
11:45 71.3 °F 65.5 °F 29.68 in SSW 4 mph 4 mph 82% 0.00 in 731 W/m2
11:50 71.3 °F 65.5 °F 29.68 in SSE 4 mph 4 mph 82% 0.00 in 789 W/m2
11:55 71.4 °F 65.6 °F 29.68 in SSW 3 mph 4 mph 82% 0.00 in 817 W/m2
12:00 71.4 °F 65.3 °F 29.68 in SSW 3 mph 3 mph 81% 0.00 in 1007 W/m2
12:05 71.5 °F 65.4 °F 29.68 in SE 3 mph 3 mph 81% 0.00 in 330 W/m2
12:10 71.5 °F 65.4 °F 29.68 in SW 3 mph 5 mph 81% 0.00 in 352 W/m2
12:15 71.4 °F 65.3 °F 29.67 in South 3 mph 5 mph 81% 0.00 in 292 W/m2
12:20 71.3 °F 65.5 °F 29.67 in South 3 mph 3 mph 82% 0.00 in 425 W/m2
12:25 71.4 °F 65.6 °F 29.67 in SW 2 mph 3 mph 82% 0.00 in 459 W/m2
12:30 71.7 °F 65.9 °F 29.66 in South 2 mph 2 mph 82% 0.00 in 359 W/m2
12:35 71.8 °F 66 °F 29.66 in East 2 mph 2 mph 82% 0.00 in 445 W/m2
12:40 72.1 °F 66.3 °F 29.65 in North 2 mph 2 mph 82% 0.00 in 366 W/m2
12:45 73.1 °F 66.9 °F 29.65 in NE 1 mph 2 mph 81% 0.00 in 366 W/m2
12:50 73.1 °F 66.2 °F 29.66 in SW 2 mph 2 mph 79% 0.00 in 367 W/m2
12:55 72.6 °F 66.4 °F 29.66 in SE 3 mph 3 mph 81% 0.00 in 972 W/m2
13:00 72.8 °F 66.6 °F 29.66 in SW 3 mph 4 mph 81% 0.00 in 290 W/m2
13:05 73.2 °F 67 °F 29.66 in SW 3 mph 4 mph 81% 0.00 in 872 W/m2
13:10 73.7 °F 67.5 °F 29.66 in SW 4 mph 4 mph 81% 0.00 in 949 W/m2
13:15 73.7 °F 67.1 °F 29.66 in WSW 4 mph 4 mph 80% 0.00 in 791 W/m2
13:20 73.8 °F 67.2 °F 29.66 in WSW 4 mph 4 mph 80% 0.00 in 969 W/m2
13:25 73.8 °F 67.2 °F 29.66 in WNW 4 mph 4 mph 80% 0.00 in 503 W/m2
13:30 73.7 °F 67.1 °F 29.66 in SSW 4 mph 5 mph 80% 0.00 in 475 W/m2
13:35 73.2 °F 67.4 °F 29.65 in NE 4 mph 5 mph 82% 0.00 in 251 W/m2
13:40 72.6 °F 66.8 °F 29.65 in South 3 mph 3 mph 82% 0.00 in 334 W/m2
13:45 72.6 °F 66.8 °F 29.65 in SSW 2 mph 4 mph 82% 0.00 in 294 W/m2
13:50 72.7 °F 67.2 °F 29.65 in SW 3 mph 3 mph 83% 0.00 in 181 W/m2
13:55 72.7 °F 67.2 °F 29.64 in SSW 2 mph 4 mph 83% 0.00 in 200 W/m2
14:00 72.9 °F 67.4 °F 29.64 in South 2 mph 2 mph 83% 0.00 in 274 W/m2
14:05 73.3 °F 67.5 °F 29.64 in South 3 mph 3 mph 82% 0.00 in 308 W/m2
14:10 73.7 °F 67.9 °F 29.64 in SW 3 mph 3 mph 82% 0.00 in 457 W/m2
14:15 74.3 °F 68.1 °F 29.64 in WSW 4 mph 4 mph 81% 0.00 in 944 W/m2
14:20 75 °F 68.8 °F 29.64 in South 5 mph 5 mph 81% 0.00 in 714 W/m2
14:25 75.4 °F 69.2 °F 29.64 in WSW 4 mph 5 mph 81% 0.00 in 568 W/m2
14:30 75.5 °F 68.9 °F 29.64 in NW 4 mph 4 mph 80% 0.00 in 251 W/m2
14:35 75.6 °F 69 °F 29.64 in WNW 4 mph 4 mph 80% 0.00 in 492 W/m2
14:40 75.7 °F 68.7 °F 29.63 in SW 3 mph 8 mph 79% 0.00 in 457 W/m2
14:45 75.7 °F 68.4 °F 29.63 in South 4 mph 8 mph 78% 0.00 in 396 W/m2
14:50 75.5 °F 68.5 °F 29.63 in SSW 5 mph 8 mph 79% 0.00 in 283 W/m2
14:55 75.4 °F 68.4 °F 29.63 in West 5 mph 8 mph 79% 0.00 in 353 W/m2
15:00 75.4 °F 68.4 °F 29.63 in NE 5 mph 7 mph 79% 0.00 in 459 W/m2
15:05 75.4 °F 68.8 °F 29.63 in WSW 5 mph 7 mph 80% 0.00 in 459 W/m2
15:10 75.2 °F 68.6 °F 29.63 in SW 6 mph 6 mph 80% 0.00 in 399 W/m2
15:15 75.1 °F 68.9 °F 29.63 in SSW 5 mph 6 mph 81% 0.00 in 510 W/m2
15:20 75.2 °F 69 °F 29.63 in SSW 5 mph 6 mph 81% 0.00 in 534 W/m2
15:25 75.2 °F 68.6 °F 29.63 in SSW 5 mph 6 mph 80% 0.00 in 475 W/m2
15:30 75.3 °F 69.1 °F 29.63 in SSW 5 mph 5 mph 81% 0.00 in 640 W/m2
15:35 75.4 °F 69.2 °F 29.63 in West 5 mph 5 mph 81% 0.00 in 411 W/m2
15:40 75.7 °F 69.5 °F 29.63 in SE 5 mph 5 mph 81% 0.00 in 819 W/m2
15:45 75.9 °F 69.3 °F 29.63 in SW 5 mph 7 mph 80% 0.00 in 846 W/m2
15:50 76.1 °F 69.5 °F 29.63 in WSW 4 mph 6 mph 80% 0.00 in 770 W/m2
15:55 76.2 °F 69.2 °F 29.63 in SSW 4 mph 6 mph 79% 0.00 in 784 W/m2
16:00 76.4 °F 69.8 °F 29.62 in SSW 4 mph 7 mph 80% 0.00 in 821 W/m2
16:05 76.3 °F 69.7 °F 29.62 in South 4 mph 7 mph 80% 0.00 in 763 W/m2
16:10 76 °F 69.4 °F 29.62 in SW 5 mph 6 mph 80% 0.00 in 724 W/m2
16:15 76.5 °F 69.5 °F 29.62 in South 5 mph 7 mph 79% 0.00 in 717 W/m2
16:20 77.1 °F 70.1 °F 29.62 in WSW 5 mph 5 mph 79% 0.00 in 710 W/m2
16:25 77.1 °F 70.1 °F 29.62 in SW 5 mph 5 mph 79% 0.00 in 694 W/m2
16:30 77.3 °F 70.3 °F 29.62 in SW 5 mph 5 mph 79% 0.00 in 693 W/m2
16:35 77.4 °F 70 °F 29.61 in WSW 4 mph 7 mph 78% 0.00 in 687 W/m2
16:40 77.6 °F 70.2 °F 29.61 in WSW 5 mph 5 mph 78% 0.00 in 680 W/m2
16:45 77.8 °F 70.4 °F 29.61 in West 5 mph 5 mph 78% 0.00 in 670 W/m2
16:50 77.8 °F 70.4 °F 29.61 in WSW 5 mph 5 mph 78% 0.00 in 659 W/m2
16:55 77.9 °F 70.5 °F 29.61 in SSW 5 mph 7 mph 78% 0.00 in 649 W/m2
17:00 77.9 °F 70.5 °F 29.60 in NW 5 mph 5 mph 78% 0.00 in 636 W/m2
17:05 77.9 °F 70.5 °F 29.60 in SW 5 mph 5 mph 78% 0.00 in 624 W/m2
17:10 78 °F 70.6 °F 29.60 in SW 4 mph 4 mph 78% 0.00 in 613 W/m2
17:15 78 °F 70.6 °F 29.60 in WSW 4 mph 4 mph 78% 0.00 in 605 W/m2
17:20 77.9 °F 70.5 °F 29.61 in WSW 4 mph 5 mph 78% 0.00 in 591 W/m2
17:25 77.9 °F 70.5 °F 29.60 in SSW 4 mph 5 mph 78% 0.00 in 577 W/m2
17:30 77.8 °F 70.4 °F 29.60 in SW 4 mph 4 mph 78% 0.00 in 564 W/m2
17:35 77.8 °F 70.4 °F 29.60 in SW 4 mph 6 mph 78% 0.00 in 552 W/m2
17:40 77.8 °F 70.4 °F 29.60 in SW 4 mph 4 mph 78% 0.00 in 536 W/m2
17:45 77.8 °F 70.4 °F 29.60 in SW 4 mph 4 mph 78% 0.00 in 524 W/m2
17:50 77.9 °F 70.1 °F 29.60 in SSW 4 mph 6 mph 77% 0.00 in 512 W/m2
17:55 77.9 °F 70.5 °F 29.60 in SSW 4 mph 6 mph 78% 0.00 in 496 W/m2
18:00 78 °F 70.2 °F 29.60 in South 4 mph 5 mph 77% 0.00 in 483 W/m2
18:05 78.1 °F 69.9 °F 29.60 in SW 4 mph 5 mph 76% 0.00 in 473 W/m2
18:10 78.2 °F 70 °F 29.60 in South 4 mph 6 mph 76% 0.00 in 454 W/m2
18:15 78.3 °F 70.1 °F 29.60 in SW 4 mph 6 mph 76% 0.00 in 445 W/m2
18:20 78.4 °F 70.2 °F 29.60 in SSW 4 mph 4 mph 76% 0.00 in 429 W/m2
18:25 78.4 °F 69.8 °F 29.60 in SW 4 mph 5 mph 75% 0.00 in 418 W/m2
18:30 78.5 °F 70.3 °F 29.60 in SSW 4 mph 4 mph 76% 0.00 in 408 W/m2
18:35 78.3 °F 70.1 °F 29.60 in SW 4 mph 4 mph 76% 0.00 in 390 W/m2
18:40 78.3 °F 70.1 °F 29.60 in SSW 4 mph 5 mph 76% 0.00 in 378 W/m2
18:45 78.2 °F 70.4 °F 29.60 in SW 4 mph 5 mph 77% 0.00 in 362 W/m2
18:50 78.2 °F 70.4 °F 29.60 in NW 4 mph 4 mph 77% 0.00 in 352 W/m2
18:55 78.2 °F 70.4 °F 29.60 in SSW 4 mph 6 mph 77% 0.00 in 339 W/m2
19:00 78.2 °F 70.4 °F 29.60 in WSW 3 mph 3 mph 77% 0.00 in 332 W/m2
19:05 77.9 °F 69.7 °F 29.60 in South 3 mph 3 mph 76% 0.00 in 54 W/m2
19:10 77.8 °F 70 °F 29.60 in SSW 3 mph 3 mph 77% 0.00 in 302 W/m2
19:15 77.8 °F 70 °F 29.60 in NE 3 mph 3 mph 77% 0.00 in 330 W/m2
19:20 77.8 °F 70 °F 29.61 in SSW 3 mph 3 mph 77% 0.00 in 83 W/m2
19:25 77.9 °F 70.5 °F 29.61 in SSW 3 mph 3 mph 78% 0.00 in 271 W/m2
19:30 77.9 °F 70.1 °F 29.61 in SW 2 mph 3 mph 77% 0.00 in 244 W/m2
19:35 78 °F 69.8 °F 29.61 in SW 3 mph 3 mph 76% 0.00 in 230 W/m2
19:40 78.1 °F 69.9 °F 29.61 in SW 3 mph 4 mph 76% 0.00 in 213 W/m2
19:45 78 °F 69.4 °F 29.61 in SSE 3 mph 4 mph 75% 0.00 in 199 W/m2
19:50 78 °F 69 °F 29.61 in SSW 3 mph 4 mph 74% 0.00 in 188 W/m2
19:55 78.1 °F 69.9 °F 29.61 in West 4 mph 4 mph 76% 0.00 in 171 W/m2
20:00 78 °F 70.2 °F 29.61 in West 4 mph 4 mph 77% 0.00 in 107 W/m2
20:05 77.9 °F 70.1 °F 29.61 in SSW 3 mph 4 mph 77% 0.00 in 69 W/m2
20:10 77.8 °F 69.6 °F 29.62 in SW 2 mph 4 mph 76% 0.00 in 44 W/m2
20:15 77.8 °F 69.6 °F 29.61 in WSW 2 mph 6 mph 76% 0.00 in 40 W/m2
20:20 77.7 °F 69.5 °F 29.61 in NW 2 mph 3 mph 76% 0.00 in 42 W/m2
20:25 77.6 °F 69.4 °F 29.61 in WNW 2 mph 3 mph 76% 0.00 in 37 W/m2
20:30 77.5 °F 69.3 °F 29.61 in WNW 2 mph 3 mph 76% 0.00 in 30 W/m2
20:35 77.3 °F 69.1 °F 29.61 in SW 2 mph 3 mph 76% 0.00 in 28 W/m2
20:40 77 °F 68.5 °F 29.61 in WSW 2 mph 2 mph 75% 0.00 in 26 W/m2
20:45 76.9 °F 68.4 °F 29.62 in WNW 3 mph 3 mph 75% 0.00 in 25 W/m2
20:50 76.7 °F 67.8 °F 29.62 in West 2 mph 2 mph 74% 0.00 in 26 W/m2
20:55 76.5 °F 66.8 °F 29.62 in WNW 2 mph 2 mph 72% 0.00 in 19 W/m2
21:00 76.2 °F 65.3 °F 29.62 in WSW 2 mph 4 mph 69% 0.00 in 14 W/m2
21:05 76.2 °F 64.9 °F 29.62 in WSW 3 mph 4 mph 68% 0.00 in 9 W/m2
21:10 76.2 °F 64 °F 29.62 in WSW 3 mph 3 mph 66% 0.00 in 7 W/m2
21:15 76.3 °F 64.1 °F 29.62 in SW 3 mph 5 mph 66% 0.00 in 5 W/m2
21:20 76.5 °F 63.9 °F 29.62 in West 3 mph 3 mph 65% 0.00 in 0 W/m2
21:25 76.7 °F 64 °F 29.62 in NNW 3 mph 3 mph 65% 0.00 in 0 W/m2
21:30 77.1 °F 64.9 °F 29.63 in NE 3 mph 3 mph 66% 0.00 in 0 W/m2
21:35 77.2 °F 64.1 °F 29.63 in SW 3 mph 3 mph 64% 0.00 in 0 W/m2
21:40 77 °F 64.3 °F 29.63 in NNE 2 mph 2 mph 65% 0.00 in 0 W/m2
21:45 76.7 °F 64.5 °F 29.63 in NE 2 mph 2 mph 66% 0.00 in 0 W/m2
21:50 76.3 °F 64.5 °F 29.64 in East 2 mph 2 mph 67% 0.00 in 0 W/m2
21:55 76.1 °F 64.8 °F 29.64 in SW 1 mph 2 mph 68% 0.00 in 0 W/m2
22:00 75.9 °F 64.6 °F 29.64 in NNE 1 mph 2 mph 68% 0.00 in 0 W/m2
22:05 75.5 °F 64.6 °F 29.64 in NE 1 mph 2 mph 69% 0.00 in 0 W/m2
22:10 75.2 °F 64.7 °F 29.65 in NE 1 mph 1 mph 70% 0.00 in 0 W/m2
22:15 74.9 °F 64.5 °F 29.65 in East 1 mph 1 mph 70% 0.00 in 0 W/m2
22:20 74.6 °F 65 °F 29.65 in SE 1 mph 1 mph 72% 0.00 in 0 W/m2
22:25 74.2 °F 64.6 °F 29.65 in SE 1 mph 1 mph 72% 0.00 in 0 W/m2
22:30 73.9 °F 64.3 °F 29.66 in NNE 1 mph 1 mph 72% 0.00 in 0 W/m2
22:35 73.7 °F 64.5 °F 29.66 in Calm   1 mph 73% 0.00 in 0 W/m2
22:40 73.3 °F 64.1 °F 29.66 in Calm     73% 0.00 in 0 W/m2
22:45 73.1 °F 63.9 °F 29.66 in Calm   1 mph 73% 0.00 in 0 W/m2
22:50 72.8 °F 64 °F 29.67 in NE 1 mph 1 mph 74% 0.00 in 0 W/m2
22:55 72.5 °F 64.1 °F 29.67 in Calm   1 mph 75% 0.00 in 0 W/m2
23:00 72.2 °F 63.8 °F 29.67 in Calm     75% 0.00 in 0 W/m2
Sand Point, Michigan, USA
Compliments of Weather Underground - 2 mb